sensor_id;sensor_type;location;lat;lon;timestamp;P1;durP1;ratioP1;P2;durP2;ratioP2
41333;SDS011;27078;46.428;6.256;2024-01-30T00:01:37;9.18;;;5.40;;
41333;SDS011;27078;46.428;6.256;2024-01-30T00:04:03;9.40;;;5.45;;
41333;SDS011;27078;46.428;6.256;2024-01-30T00:06:28;11.43;;;6.50;;
41333;SDS011;27078;46.428;6.256;2024-01-30T00:08:53;9.68;;;5.50;;
41333;SDS011;27078;46.428;6.256;2024-01-30T00:11:19;8.15;;;5.25;;
41333;SDS011;27078;46.428;6.256;2024-01-30T00:13:44;9.55;;;5.53;;
41333;SDS011;27078;46.428;6.256;2024-01-30T00:16:19;8.55;;;5.43;;
41333;SDS011;27078;46.428;6.256;2024-01-30T00:18:46;11.25;;;5.80;;
41333;SDS011;27078;46.428;6.256;2024-01-30T00:21:11;10.55;;;5.35;;
41333;SDS011;27078;46.428;6.256;2024-01-30T00:23:36;10.05;;;5.05;;
41333;SDS011;27078;46.428;6.256;2024-01-30T00:26:02;8.77;;;5.25;;
41333;SDS011;27078;46.428;6.256;2024-01-30T00:28:27;11.43;;;5.45;;
41333;SDS011;27078;46.428;6.256;2024-01-30T00:30:52;7.32;;;4.70;;
41333;SDS011;27078;46.428;6.256;2024-01-30T00:33:18;8.43;;;4.70;;
41333;SDS011;27078;46.428;6.256;2024-01-30T00:35:43;7.88;;;4.47;;
41333;SDS011;27078;46.428;6.256;2024-01-30T00:38:08;8.15;;;4.85;;
41333;SDS011;27078;46.428;6.256;2024-01-30T00:40:34;10.13;;;4.20;;
41333;SDS011;27078;46.428;6.256;2024-01-30T00:42:59;10.20;;;4.40;;
41333;SDS011;27078;46.428;6.256;2024-01-30T00:45:25;7.22;;;3.90;;
41333;SDS011;27078;46.428;6.256;2024-01-30T00:47:50;6.80;;;4.22;;
41333;SDS011;27078;46.428;6.256;2024-01-30T00:50:15;7.95;;;4.50;;
41333;SDS011;27078;46.428;6.256;2024-01-30T00:52:41;9.63;;;5.35;;
41333;SDS011;27078;46.428;6.256;2024-01-30T00:55:07;10.93;;;5.88;;
41333;SDS011;27078;46.428;6.256;2024-01-30T00:57:32;16.73;;;8.25;;
41333;SDS011;27078;46.428;6.256;2024-01-30T00:59:58;15.82;;;9.63;;
41333;SDS011;27078;46.428;6.256;2024-01-30T01:02:23;20.65;;;10.90;;
41333;SDS011;27078;46.428;6.256;2024-01-30T01:04:48;19.48;;;10.88;;
41333;SDS011;27078;46.428;6.256;2024-01-30T01:07:14;17.75;;;10.45;;
41333;SDS011;27078;46.428;6.256;2024-01-30T01:09:39;16.20;;;9.30;;
41333;SDS011;27078;46.428;6.256;2024-01-30T01:12:05;16.67;;;9.25;;
41333;SDS011;27078;46.428;6.256;2024-01-30T01:14:30;15.02;;;7.43;;
41333;SDS011;27078;46.428;6.256;2024-01-30T01:16:56;14.18;;;7.97;;
41333;SDS011;27078;46.428;6.256;2024-01-30T01:19:21;12.63;;;7.40;;
41333;SDS011;27078;46.428;6.256;2024-01-30T01:21:47;10.65;;;5.28;;
41333;SDS011;27078;46.428;6.256;2024-01-30T01:24:12;11.75;;;6.22;;
41333;SDS011;27078;46.428;6.256;2024-01-30T01:26:38;9.85;;;5.47;;
41333;SDS011;27078;46.428;6.256;2024-01-30T01:29:03;11.32;;;6.00;;
41333;SDS011;27078;46.428;6.256;2024-01-30T01:31:35;10.63;;;5.28;;
41333;SDS011;27078;46.428;6.256;2024-01-30T01:34:04;9.75;;;5.72;;
41333;SDS011;27078;46.428;6.256;2024-01-30T01:36:30;9.95;;;5.80;;
41333;SDS011;27078;46.428;6.256;2024-01-30T01:38:55;12.30;;;6.88;;
41333;SDS011;27078;46.428;6.256;2024-01-30T01:41:21;12.70;;;7.07;;
41333;SDS011;27078;46.428;6.256;2024-01-30T01:43:46;15.02;;;7.97;;
41333;SDS011;27078;46.428;6.256;2024-01-30T01:46:11;12.18;;;6.25;;
41333;SDS011;27078;46.428;6.256;2024-01-30T01:48:37;13.07;;;6.68;;
41333;SDS011;27078;46.428;6.256;2024-01-30T01:51:04;13.93;;;7.45;;
41333;SDS011;27078;46.428;6.256;2024-01-30T01:53:30;12.25;;;7.07;;
41333;SDS011;27078;46.428;6.256;2024-01-30T01:55:56;11.20;;;6.22;;
41333;SDS011;27078;46.428;6.256;2024-01-30T01:58:22;10.90;;;6.70;;
41333;SDS011;27078;46.428;6.256;2024-01-30T02:00:48;10.02;;;5.80;;
41333;SDS011;27078;46.428;6.256;2024-01-30T02:03:16;12.18;;;6.93;;
41333;SDS011;27078;46.428;6.256;2024-01-30T02:05:43;11.38;;;6.80;;
41333;SDS011;27078;46.428;6.256;2024-01-30T02:08:08;14.63;;;7.20;;
41333;SDS011;27078;46.428;6.256;2024-01-30T02:10:34;13.88;;;8.50;;
41333;SDS011;27078;46.428;6.256;2024-01-30T02:12:59;13.02;;;7.97;;
41333;SDS011;27078;46.428;6.256;2024-01-30T02:15:25;11.57;;;6.95;;
41333;SDS011;27078;46.428;6.256;2024-01-30T02:17:50;13.05;;;8.10;;
41333;SDS011;27078;46.428;6.256;2024-01-30T02:20:15;12.48;;;7.10;;
41333;SDS011;27078;46.428;6.256;2024-01-30T02:22:41;10.75;;;6.47;;
41333;SDS011;27078;46.428;6.256;2024-01-30T02:25:07;11.77;;;6.22;;
41333;SDS011;27078;46.428;6.256;2024-01-30T02:27:33;8.85;;;5.25;;
41333;SDS011;27078;46.428;6.256;2024-01-30T02:29:58;9.20;;;5.50;;
41333;SDS011;27078;46.428;6.256;2024-01-30T02:32:24;8.75;;;4.93;;
41333;SDS011;27078;46.428;6.256;2024-01-30T02:34:49;8.90;;;5.50;;
41333;SDS011;27078;46.428;6.256;2024-01-30T02:37:14;10.23;;;5.45;;
41333;SDS011;27078;46.428;6.256;2024-01-30T02:39:41;9.15;;;4.53;;
41333;SDS011;27078;46.428;6.256;2024-01-30T02:42:06;10.32;;;5.32;;
41333;SDS011;27078;46.428;6.256;2024-01-30T02:44:32;9.10;;;4.90;;
41333;SDS011;27078;46.428;6.256;2024-01-30T02:46:57;8.45;;;4.90;;
41333;SDS011;27078;46.428;6.256;2024-01-30T02:49:22;8.82;;;5.07;;
41333;SDS011;27078;46.428;6.256;2024-01-30T02:51:48;8.82;;;5.15;;
41333;SDS011;27078;46.428;6.256;2024-01-30T02:54:13;14.35;;;8.70;;
41333;SDS011;27078;46.428;6.256;2024-01-30T02:56:39;13.57;;;7.78;;
41333;SDS011;27078;46.428;6.256;2024-01-30T02:59:04;13.07;;;8.30;;
41333;SDS011;27078;46.428;6.256;2024-01-30T03:01:30;12.38;;;7.55;;
41333;SDS011;27078;46.428;6.256;2024-01-30T03:03:56;16.65;;;8.38;;
41333;SDS011;27078;46.428;6.256;2024-01-30T03:06:22;14.85;;;7.40;;
41333;SDS011;27078;46.428;6.256;2024-01-30T03:08:47;8.18;;;4.90;;
41333;SDS011;27078;46.428;6.256;2024-01-30T03:11:13;8.32;;;4.45;;
41333;SDS011;27078;46.428;6.256;2024-01-30T03:13:38;10.25;;;4.93;;
41333;SDS011;27078;46.428;6.256;2024-01-30T03:16:04;8.50;;;5.05;;
41333;SDS011;27078;46.428;6.256;2024-01-30T03:18:29;8.30;;;5.18;;
41333;SDS011;27078;46.428;6.256;2024-01-30T03:20:55;9.63;;;4.78;;
41333;SDS011;27078;46.428;6.256;2024-01-30T03:23:20;9.02;;;4.63;;
41333;SDS011;27078;46.428;6.256;2024-01-30T03:25:45;11.82;;;5.50;;
41333;SDS011;27078;46.428;6.256;2024-01-30T03:28:11;12.52;;;7.78;;
41333;SDS011;27078;46.428;6.256;2024-01-30T03:30:36;11.70;;;7.72;;
41333;SDS011;27078;46.428;6.256;2024-01-30T03:33:02;12.05;;;7.47;;
41333;SDS011;27078;46.428;6.256;2024-01-30T03:35:27;13.00;;;6.75;;
41333;SDS011;27078;46.428;6.256;2024-01-30T03:37:53;14.05;;;6.93;;
41333;SDS011;27078;46.428;6.256;2024-01-30T03:40:18;13.05;;;7.03;;
41333;SDS011;27078;46.428;6.256;2024-01-30T03:42:43;11.73;;;7.10;;
41333;SDS011;27078;46.428;6.256;2024-01-30T03:45:09;12.27;;;7.32;;
41333;SDS011;27078;46.428;6.256;2024-01-30T03:47:34;15.02;;;8.65;;
41333;SDS011;27078;46.428;6.256;2024-01-30T03:50:00;14.73;;;7.88;;
41333;SDS011;27078;46.428;6.256;2024-01-30T03:52:25;12.52;;;7.10;;
41333;SDS011;27078;46.428;6.256;2024-01-30T03:54:50;12.43;;;7.13;;
41333;SDS011;27078;46.428;6.256;2024-01-30T03:57:15;9.88;;;5.57;;
41333;SDS011;27078;46.428;6.256;2024-01-30T03:59:42;11.73;;;5.53;;
41333;SDS011;27078;46.428;6.256;2024-01-30T04:02:07;12.38;;;6.38;;
41333;SDS011;27078;46.428;6.256;2024-01-30T04:04:33;10.85;;;5.78;;
41333;SDS011;27078;46.428;6.256;2024-01-30T04:06:58;11.80;;;5.82;;
41333;SDS011;27078;46.428;6.256;2024-01-30T04:09:23;11.82;;;6.82;;
41333;SDS011;27078;46.428;6.256;2024-01-30T04:11:49;11.68;;;6.75;;
41333;SDS011;27078;46.428;6.256;2024-01-30T04:14:14;11.27;;;6.50;;
41333;SDS011;27078;46.428;6.256;2024-01-30T04:16:39;13.38;;;7.05;;
41333;SDS011;27078;46.428;6.256;2024-01-30T04:19:05;12.32;;;6.97;;
41333;SDS011;27078;46.428;6.256;2024-01-30T04:21:30;11.75;;;6.82;;
41333;SDS011;27078;46.428;6.256;2024-01-30T04:23:56;11.80;;;6.50;;
41333;SDS011;27078;46.428;6.256;2024-01-30T04:26:21;12.55;;;6.60;;
41333;SDS011;27078;46.428;6.256;2024-01-30T04:28:47;9.60;;;5.22;;
41333;SDS011;27078;46.428;6.256;2024-01-30T04:31:12;8.25;;;4.32;;
41333;SDS011;27078;46.428;6.256;2024-01-30T04:33:37;8.82;;;5.20;;
41333;SDS011;27078;46.428;6.256;2024-01-30T04:36:03;10.02;;;4.82;;
41333;SDS011;27078;46.428;6.256;2024-01-30T04:38:29;10.40;;;5.15;;
41333;SDS011;27078;46.428;6.256;2024-01-30T04:40:55;9.40;;;5.43;;
41333;SDS011;27078;46.428;6.256;2024-01-30T04:43:20;8.90;;;5.10;;
41333;SDS011;27078;46.428;6.256;2024-01-30T04:45:46;10.50;;;5.13;;
41333;SDS011;27078;46.428;6.256;2024-01-30T04:48:12;11.00;;;5.90;;
41333;SDS011;27078;46.428;6.256;2024-01-30T04:50:37;10.43;;;5.93;;
41333;SDS011;27078;46.428;6.256;2024-01-30T04:53:03;10.23;;;5.45;;
41333;SDS011;27078;46.428;6.256;2024-01-30T04:55:28;9.68;;;5.57;;
41333;SDS011;27078;46.428;6.256;2024-01-30T04:57:53;10.18;;;5.30;;
41333;SDS011;27078;46.428;6.256;2024-01-30T05:00:19;8.73;;;5.15;;
41333;SDS011;27078;46.428;6.256;2024-01-30T05:02:45;10.88;;;5.30;;
41333;SDS011;27078;46.428;6.256;2024-01-30T05:05:10;10.85;;;6.15;;
41333;SDS011;27078;46.428;6.256;2024-01-30T05:07:36;10.52;;;6.35;;
41333;SDS011;27078;46.428;6.256;2024-01-30T05:10:01;12.07;;;6.50;;
41333;SDS011;27078;46.428;6.256;2024-01-30T05:12:27;10.98;;;6.20;;
41333;SDS011;27078;46.428;6.256;2024-01-30T05:14:52;12.05;;;6.75;;
41333;SDS011;27078;46.428;6.256;2024-01-30T05:17:18;13.90;;;7.32;;
41333;SDS011;27078;46.428;6.256;2024-01-30T05:19:43;12.32;;;7.40;;
41333;SDS011;27078;46.428;6.256;2024-01-30T05:22:09;13.57;;;7.55;;
41333;SDS011;27078;46.428;6.256;2024-01-30T05:24:34;12.20;;;7.43;;
41333;SDS011;27078;46.428;6.256;2024-01-30T05:27:00;14.90;;;8.18;;
41333;SDS011;27078;46.428;6.256;2024-01-30T05:29:25;12.48;;;7.55;;
41333;SDS011;27078;46.428;6.256;2024-01-30T05:31:51;11.20;;;6.82;;
41333;SDS011;27078;46.428;6.256;2024-01-30T05:34:17;9.25;;;6.00;;
41333;SDS011;27078;46.428;6.256;2024-01-30T05:36:42;9.00;;;5.28;;
41333;SDS011;27078;46.428;6.256;2024-01-30T05:39:08;9.90;;;5.25;;
41333;SDS011;27078;46.428;6.256;2024-01-30T05:41:33;8.88;;;5.68;;
41333;SDS011;27078;46.428;6.256;2024-01-30T05:43:58;8.10;;;4.95;;
41333;SDS011;27078;46.428;6.256;2024-01-30T05:46:24;8.30;;;5.22;;
41333;SDS011;27078;46.428;6.256;2024-01-30T05:48:49;7.82;;;4.70;;
41333;SDS011;27078;46.428;6.256;2024-01-30T05:51:14;8.45;;;4.70;;
41333;SDS011;27078;46.428;6.256;2024-01-30T05:53:40;8.93;;;4.88;;
41333;SDS011;27078;46.428;6.256;2024-01-30T05:56:05;7.68;;;5.03;;
41333;SDS011;27078;46.428;6.256;2024-01-30T05:58:31;10.88;;;5.00;;
41333;SDS011;27078;46.428;6.256;2024-01-30T06:00:56;9.40;;;4.93;;
41333;SDS011;27078;46.428;6.256;2024-01-30T06:03:22;8.88;;;4.72;;
41333;SDS011;27078;46.428;6.256;2024-01-30T06:05:48;10.63;;;5.18;;
41333;SDS011;27078;46.428;6.256;2024-01-30T06:08:13;9.50;;;5.13;;
41333;SDS011;27078;46.428;6.256;2024-01-30T06:10:38;8.95;;;5.80;;
41333;SDS011;27078;46.428;6.256;2024-01-30T06:13:04;10.77;;;6.10;;
41333;SDS011;27078;46.428;6.256;2024-01-30T06:15:29;10.60;;;5.97;;
41333;SDS011;27078;46.428;6.256;2024-01-30T06:17:55;11.82;;;5.43;;
41333;SDS011;27078;46.428;6.256;2024-01-30T06:20:20;10.32;;;5.35;;
41333;SDS011;27078;46.428;6.256;2024-01-30T06:22:46;9.27;;;5.13;;
41333;SDS011;27078;46.428;6.256;2024-01-30T06:25:11;11.60;;;5.50;;
41333;SDS011;27078;46.428;6.256;2024-01-30T06:27:37;8.65;;;5.18;;
41333;SDS011;27078;46.428;6.256;2024-01-30T06:30:03;8.60;;;5.05;;
41333;SDS011;27078;46.428;6.256;2024-01-30T06:32:29;8.68;;;4.50;;
41333;SDS011;27078;46.428;6.256;2024-01-30T06:34:59;9.13;;;4.40;;
41333;SDS011;27078;46.428;6.256;2024-01-30T06:37:25;8.32;;;4.50;;
41333;SDS011;27078;46.428;6.256;2024-01-30T06:39:50;9.00;;;4.70;;
41333;SDS011;27078;46.428;6.256;2024-01-30T06:42:15;9.15;;;4.90;;
41333;SDS011;27078;46.428;6.256;2024-01-30T06:44:41;9.38;;;5.22;;
41333;SDS011;27078;46.428;6.256;2024-01-30T06:47:06;8.65;;;5.13;;
41333;SDS011;27078;46.428;6.256;2024-01-30T06:49:31;9.68;;;5.43;;
41333;SDS011;27078;46.428;6.256;2024-01-30T06:51:57;13.30;;;7.68;;
41333;SDS011;27078;46.428;6.256;2024-01-30T06:54:22;18.55;;;10.38;;
41333;SDS011;27078;46.428;6.256;2024-01-30T06:56:47;12.93;;;7.30;;
41333;SDS011;27078;46.428;6.256;2024-01-30T06:59:13;11.13;;;7.28;;
41333;SDS011;27078;46.428;6.256;2024-01-30T07:01:38;11.27;;;6.30;;
41333;SDS011;27078;46.428;6.256;2024-01-30T07:04:04;11.18;;;5.95;;
41333;SDS011;27078;46.428;6.256;2024-01-30T07:06:29;9.57;;;5.53;;
41333;SDS011;27078;46.428;6.256;2024-01-30T07:08:54;8.75;;;5.82;;
41333;SDS011;27078;46.428;6.256;2024-01-30T07:11:20;10.23;;;5.45;;
41333;SDS011;27078;46.428;6.256;2024-01-30T07:13:47;10.70;;;5.63;;
41333;SDS011;27078;46.428;6.256;2024-01-30T07:16:13;10.75;;;6.13;;
41333;SDS011;27078;46.428;6.256;2024-01-30T07:18:39;9.23;;;5.57;;
41333;SDS011;27078;46.428;6.256;2024-01-30T07:21:04;11.90;;;5.82;;
41333;SDS011;27078;46.428;6.256;2024-01-30T07:23:30;12.52;;;5.75;;
41333;SDS011;27078;46.428;6.256;2024-01-30T07:25:55;9.55;;;5.60;;
41333;SDS011;27078;46.428;6.256;2024-01-30T07:28:21;14.95;;;6.43;;
41333;SDS011;27078;46.428;6.256;2024-01-30T07:30:46;12.07;;;6.60;;
41333;SDS011;27078;46.428;6.256;2024-01-30T07:33:13;13.60;;;7.07;;
41333;SDS011;27078;46.428;6.256;2024-01-30T07:35:38;17.05;;;8.35;;
41333;SDS011;27078;46.428;6.256;2024-01-30T07:38:04;15.27;;;7.07;;
41333;SDS011;27078;46.428;6.256;2024-01-30T07:40:44;13.60;;;7.75;;
41333;SDS011;27078;46.428;6.256;2024-01-30T07:43:10;13.35;;;7.35;;
41333;SDS011;27078;46.428;6.256;2024-01-30T07:45:36;16.60;;;7.85;;
41333;SDS011;27078;46.428;6.256;2024-01-30T07:48:02;12.90;;;7.80;;
41333;SDS011;27078;46.428;6.256;2024-01-30T07:50:28;12.82;;;7.30;;
41333;SDS011;27078;46.428;6.256;2024-01-30T07:52:55;12.35;;;6.78;;
41333;SDS011;27078;46.428;6.256;2024-01-30T07:55:21;10.52;;;6.00;;
41333;SDS011;27078;46.428;6.256;2024-01-30T07:57:52;13.95;;;7.28;;
41333;SDS011;27078;46.428;6.256;2024-01-30T08:00:18;11.98;;;6.57;;
41333;SDS011;27078;46.428;6.256;2024-01-30T08:02:52;13.20;;;7.18;;
41333;SDS011;27078;46.428;6.256;2024-01-30T08:05:20;10.82;;;6.22;;
41333;SDS011;27078;46.428;6.256;2024-01-30T08:07:47;12.75;;;6.45;;
41333;SDS011;27078;46.428;6.256;2024-01-30T08:10:13;12.13;;;6.10;;
41333;SDS011;27078;46.428;6.256;2024-01-30T08:12:40;10.13;;;5.60;;
41333;SDS011;27078;46.428;6.256;2024-01-30T08:15:05;8.63;;;5.82;;
41333;SDS011;27078;46.428;6.256;2024-01-30T08:17:31;10.40;;;5.93;;
41333;SDS011;27078;46.428;6.256;2024-01-30T08:19:56;12.30;;;6.30;;
41333;SDS011;27078;46.428;6.256;2024-01-30T08:22:21;12.32;;;6.22;;
41333;SDS011;27078;46.428;6.256;2024-01-30T08:24:47;21.38;;;12.40;;
41333;SDS011;27078;46.428;6.256;2024-01-30T08:27:12;20.63;;;11.35;;
41333;SDS011;27078;46.428;6.256;2024-01-30T08:29:38;22.70;;;11.40;;
41333;SDS011;27078;46.428;6.256;2024-01-30T08:32:04;30.13;;;15.10;;
41333;SDS011;27078;46.428;6.256;2024-01-30T08:34:30;18.15;;;10.65;;
41333;SDS011;27078;46.428;6.256;2024-01-30T08:36:56;22.48;;;12.77;;
41333;SDS011;27078;46.428;6.256;2024-01-30T08:39:21;22.48;;;12.90;;
41333;SDS011;27078;46.428;6.256;2024-01-30T08:41:46;27.17;;;15.93;;
41333;SDS011;27078;46.428;6.256;2024-01-30T08:44:12;29.02;;;17.98;;
41333;SDS011;27078;46.428;6.256;2024-01-30T08:46:37;24.23;;;13.52;;
41333;SDS011;27078;46.428;6.256;2024-01-30T08:49:03;21.23;;;11.77;;
41333;SDS011;27078;46.428;6.256;2024-01-30T08:51:31;19.38;;;11.68;;
41333;SDS011;27078;46.428;6.256;2024-01-30T08:53:56;26.55;;;15.70;;
41333;SDS011;27078;46.428;6.256;2024-01-30T08:56:22;32.55;;;18.63;;
41333;SDS011;27078;46.428;6.256;2024-01-30T08:58:47;32.67;;;19.23;;
41333;SDS011;27078;46.428;6.256;2024-01-30T09:01:12;35.53;;;20.90;;
41333;SDS011;27078;46.428;6.256;2024-01-30T09:03:38;34.58;;;20.83;;
41333;SDS011;27078;46.428;6.256;2024-01-30T09:06:09;35.22;;;19.92;;
41333;SDS011;27078;46.428;6.256;2024-01-30T09:08:35;37.53;;;17.65;;
41333;SDS011;27078;46.428;6.256;2024-01-30T09:11:00;38.80;;;21.08;;
41333;SDS011;27078;46.428;6.256;2024-01-30T09:13:25;34.70;;;20.40;;
41333;SDS011;27078;46.428;6.256;2024-01-30T09:15:51;35.50;;;21.20;;
41333;SDS011;27078;46.428;6.256;2024-01-30T09:18:16;36.42;;;21.48;;
41333;SDS011;27078;46.428;6.256;2024-01-30T09:20:41;37.08;;;20.40;;
41333;SDS011;27078;46.428;6.256;2024-01-30T09:23:07;36.45;;;20.85;;
41333;SDS011;27078;46.428;6.256;2024-01-30T09:25:33;39.67;;;21.00;;
41333;SDS011;27078;46.428;6.256;2024-01-30T09:27:59;38.20;;;20.75;;
41333;SDS011;27078;46.428;6.256;2024-01-30T09:30:24;34.53;;;20.92;;
41333;SDS011;27078;46.428;6.256;2024-01-30T09:32:50;34.03;;;20.80;;
41333;SDS011;27078;46.428;6.256;2024-01-30T09:35:15;34.45;;;21.90;;
41333;SDS011;27078;46.428;6.256;2024-01-30T09:37:40;35.20;;;21.27;;
41333;SDS011;27078;46.428;6.256;2024-01-30T09:40:06;34.65;;;21.83;;
41333;SDS011;27078;46.428;6.256;2024-01-30T09:42:35;36.30;;;21.38;;
41333;SDS011;27078;46.428;6.256;2024-01-30T09:45:01;38.17;;;22.60;;
41333;SDS011;27078;46.428;6.256;2024-01-30T09:47:30;38.47;;;21.52;;
41333;SDS011;27078;46.428;6.256;2024-01-30T09:50:06;37.70;;;22.92;;
41333;SDS011;27078;46.428;6.256;2024-01-30T09:52:32;38.58;;;22.48;;
41333;SDS011;27078;46.428;6.256;2024-01-30T09:54:59;37.83;;;23.17;;
41333;SDS011;27078;46.428;6.256;2024-01-30T09:57:25;36.65;;;21.65;;
41333;SDS011;27078;46.428;6.256;2024-01-30T09:59:51;28.40;;;16.75;;
41333;SDS011;27078;46.428;6.256;2024-01-30T10:02:17;34.28;;;21.55;;
41333;SDS011;27078;46.428;6.256;2024-01-30T10:04:43;33.05;;;20.98;;
41333;SDS011;27078;46.428;6.256;2024-01-30T10:07:09;34.08;;;21.10;;
41333;SDS011;27078;46.428;6.256;2024-01-30T10:09:36;34.25;;;21.42;;
41333;SDS011;27078;46.428;6.256;2024-01-30T10:12:02;31.80;;;20.38;;
41333;SDS011;27078;46.428;6.256;2024-01-30T10:14:28;29.80;;;20.00;;
41333;SDS011;27078;46.428;6.256;2024-01-30T10:16:55;31.95;;;19.88;;
41333;SDS011;27078;46.428;6.256;2024-01-30T10:19:20;32.80;;;20.25;;
41333;SDS011;27078;46.428;6.256;2024-01-30T10:21:46;33.17;;;20.40;;
41333;SDS011;27078;46.428;6.256;2024-01-30T10:24:11;31.48;;;19.10;;
41333;SDS011;27078;46.428;6.256;2024-01-30T10:26:38;28.83;;;18.50;;
41333;SDS011;27078;46.428;6.256;2024-01-30T10:29:04;28.75;;;18.63;;
41333;SDS011;27078;46.428;6.256;2024-01-30T10:31:30;30.50;;;18.30;;
41333;SDS011;27078;46.428;6.256;2024-01-30T10:33:55;28.52;;;17.77;;
41333;SDS011;27078;46.428;6.256;2024-01-30T10:36:20;30.65;;;17.85;;
41333;SDS011;27078;46.428;6.256;2024-01-30T10:38:53;23.58;;;13.75;;
41333;SDS011;27078;46.428;6.256;2024-01-30T10:41:24;22.85;;;12.70;;
41333;SDS011;27078;46.428;6.256;2024-01-30T10:43:57;25.02;;;15.80;;
41333;SDS011;27078;46.428;6.256;2024-01-30T10:46:29;30.05;;;17.08;;
41333;SDS011;27078;46.428;6.256;2024-01-30T10:48:57;27.42;;;16.10;;
41333;SDS011;27078;46.428;6.256;2024-01-30T10:51:27;23.65;;;15.13;;
41333;SDS011;27078;46.428;6.256;2024-01-30T10:53:53;23.80;;;15.15;;
41333;SDS011;27078;46.428;6.256;2024-01-30T10:56:23;25.83;;;16.58;;
41333;SDS011;27078;46.428;6.256;2024-01-30T10:58:50;22.73;;;15.07;;
41333;SDS011;27078;46.428;6.256;2024-01-30T11:01:17;26.40;;;15.88;;
41333;SDS011;27078;46.428;6.256;2024-01-30T11:03:44;26.75;;;15.05;;
41333;SDS011;27078;46.428;6.256;2024-01-30T11:06:11;26.02;;;15.38;;
41333;SDS011;27078;46.428;6.256;2024-01-30T11:08:43;21.33;;;14.65;;
41333;SDS011;27078;46.428;6.256;2024-01-30T11:11:09;23.52;;;15.40;;
41333;SDS011;27078;46.428;6.256;2024-01-30T11:13:35;20.65;;;14.05;;
41333;SDS011;27078;46.428;6.256;2024-01-30T11:16:02;24.25;;;14.70;;
41333;SDS011;27078;46.428;6.256;2024-01-30T11:18:30;26.27;;;15.95;;
41333;SDS011;27078;46.428;6.256;2024-01-30T11:20:57;24.77;;;14.80;;
41333;SDS011;27078;46.428;6.256;2024-01-30T11:23:23;23.95;;;15.13;;
41333;SDS011;27078;46.428;6.256;2024-01-30T11:25:52;22.58;;;15.25;;
41333;SDS011;27078;46.428;6.256;2024-01-30T11:28:17;22.70;;;15.05;;
41333;SDS011;27078;46.428;6.256;2024-01-30T11:30:43;24.30;;;15.70;;
41333;SDS011;27078;46.428;6.256;2024-01-30T11:35:39;24.98;;;15.63;;
41333;SDS011;27078;46.428;6.256;2024-01-30T11:38:06;22.70;;;14.40;;
41333;SDS011;27078;46.428;6.256;2024-01-30T11:40:33;23.50;;;16.15;;
41333;SDS011;27078;46.428;6.256;2024-01-30T11:42:59;23.05;;;15.93;;
41333;SDS011;27078;46.428;6.256;2024-01-30T11:45:26;23.65;;;15.85;;
41333;SDS011;27078;46.428;6.256;2024-01-30T11:47:52;24.98;;;15.02;;
41333;SDS011;27078;46.428;6.256;2024-01-30T11:50:18;19.85;;;13.15;;
41333;SDS011;27078;46.428;6.256;2024-01-30T11:52:44;25.85;;;15.23;;
41333;SDS011;27078;46.428;6.256;2024-01-30T11:55:09;20.92;;;14.32;;
41333;SDS011;27078;46.428;6.256;2024-01-30T11:57:35;21.55;;;13.48;;
41333;SDS011;27078;46.428;6.256;2024-01-30T12:00:02;20.65;;;13.48;;
41333;SDS011;27078;46.428;6.256;2024-01-30T12:02:37;20.48;;;13.15;;
41333;SDS011;27078;46.428;6.256;2024-01-30T12:05:08;18.02;;;12.90;;
41333;SDS011;27078;46.428;6.256;2024-01-30T12:07:34;20.13;;;12.98;;
41333;SDS011;27078;46.428;6.256;2024-01-30T12:10:00;19.35;;;13.35;;
41333;SDS011;27078;46.428;6.256;2024-01-30T12:12:26;21.85;;;14.35;;
41333;SDS011;27078;46.428;6.256;2024-01-30T12:14:52;20.48;;;13.95;;
41333;SDS011;27078;46.428;6.256;2024-01-30T12:19:50;23.45;;;13.48;;
41333;SDS011;27078;46.428;6.256;2024-01-30T12:22:15;20.77;;;14.32;;
41333;SDS011;27078;46.428;6.256;2024-01-30T12:24:40;22.13;;;14.77;;
41333;SDS011;27078;46.428;6.256;2024-01-30T12:27:06;21.17;;;14.70;;
41333;SDS011;27078;46.428;6.256;2024-01-30T12:29:32;22.20;;;14.13;;
41333;SDS011;27078;46.428;6.256;2024-01-30T12:31:58;20.73;;;14.27;;
41333;SDS011;27078;46.428;6.256;2024-01-30T12:34:24;22.15;;;13.98;;
41333;SDS011;27078;46.428;6.256;2024-01-30T12:36:50;21.30;;;13.57;;
41333;SDS011;27078;46.428;6.256;2024-01-30T12:39:17;22.27;;;14.43;;
41333;SDS011;27078;46.428;6.256;2024-01-30T12:41:43;22.45;;;14.68;;
41333;SDS011;27078;46.428;6.256;2024-01-30T12:44:09;18.83;;;11.95;;
41333;SDS011;27078;46.428;6.256;2024-01-30T12:46:34;21.98;;;13.80;;
41333;SDS011;27078;46.428;6.256;2024-01-30T12:49:00;19.13;;;13.23;;
41333;SDS011;27078;46.428;6.256;2024-01-30T12:51:25;21.67;;;14.10;;
41333;SDS011;27078;46.428;6.256;2024-01-30T12:53:50;25.38;;;14.38;;
41333;SDS011;27078;46.428;6.256;2024-01-30T12:56:16;25.02;;;15.02;;
41333;SDS011;27078;46.428;6.256;2024-01-30T12:58:41;22.95;;;14.88;;
41333;SDS011;27078;46.428;6.256;2024-01-30T13:01:08;21.90;;;14.27;;
41333;SDS011;27078;46.428;6.256;2024-01-30T13:03:33;20.52;;;13.80;;
41333;SDS011;27078;46.428;6.256;2024-01-30T13:05:59;21.17;;;13.43;;
41333;SDS011;27078;46.428;6.256;2024-01-30T13:08:24;19.88;;;13.40;;
41333;SDS011;27078;46.428;6.256;2024-01-30T13:10:49;21.25;;;13.98;;
41333;SDS011;27078;46.428;6.256;2024-01-30T13:13:15;21.27;;;14.23;;
41333;SDS011;27078;46.428;6.256;2024-01-30T13:15:40;21.25;;;14.45;;
41333;SDS011;27078;46.428;6.256;2024-01-30T13:18:06;18.67;;;13.65;;
41333;SDS011;27078;46.428;6.256;2024-01-30T13:20:31;22.23;;;14.52;;
41333;SDS011;27078;46.428;6.256;2024-01-30T13:22:57;21.27;;;14.30;;
41333;SDS011;27078;46.428;6.256;2024-01-30T13:25:22;23.60;;;15.05;;
41333;SDS011;27078;46.428;6.256;2024-01-30T13:27:48;21.52;;;14.57;;
41333;SDS011;27078;46.428;6.256;2024-01-30T13:30:13;20.95;;;13.88;;
41333;SDS011;27078;46.428;6.256;2024-01-30T13:32:39;22.08;;;15.07;;
41333;SDS011;27078;46.428;6.256;2024-01-30T13:35:06;22.95;;;15.05;;
41333;SDS011;27078;46.428;6.256;2024-01-30T13:37:32;22.88;;;14.77;;
41333;SDS011;27078;46.428;6.256;2024-01-30T13:39:57;22.58;;;14.40;;
41333;SDS011;27078;46.428;6.256;2024-01-30T13:42:22;20.90;;;14.73;;
41333;SDS011;27078;46.428;6.256;2024-01-30T13:44:48;23.63;;;15.60;;
41333;SDS011;27078;46.428;6.256;2024-01-30T13:47:14;22.85;;;14.90;;
41333;SDS011;27078;46.428;6.256;2024-01-30T13:49:39;23.75;;;14.18;;
41333;SDS011;27078;46.428;6.256;2024-01-30T13:52:05;20.42;;;13.73;;
41333;SDS011;27078;46.428;6.256;2024-01-30T13:54:30;22.38;;;14.57;;
41333;SDS011;27078;46.428;6.256;2024-01-30T13:56:56;22.48;;;14.63;;
41333;SDS011;27078;46.428;6.256;2024-01-30T13:59:22;23.85;;;15.23;;
41333;SDS011;27078;46.428;6.256;2024-01-30T14:01:49;21.70;;;14.60;;
41333;SDS011;27078;46.428;6.256;2024-01-30T14:04:15;21.65;;;14.32;;
41333;SDS011;27078;46.428;6.256;2024-01-30T14:06:41;20.13;;;15.43;;
41333;SDS011;27078;46.428;6.256;2024-01-30T14:09:06;23.30;;;15.75;;
41333;SDS011;27078;46.428;6.256;2024-01-30T14:11:32;26.15;;;15.45;;
41333;SDS011;27078;46.428;6.256;2024-01-30T14:13:57;23.17;;;15.00;;
41333;SDS011;27078;46.428;6.256;2024-01-30T14:16:22;23.83;;;16.50;;
41333;SDS011;27078;46.428;6.256;2024-01-30T14:18:49;22.65;;;15.88;;
41333;SDS011;27078;46.428;6.256;2024-01-30T14:21:14;23.65;;;16.08;;
41333;SDS011;27078;46.428;6.256;2024-01-30T14:23:40;23.40;;;16.20;;
41333;SDS011;27078;46.428;6.256;2024-01-30T14:26:05;25.70;;;17.02;;
41333;SDS011;27078;46.428;6.256;2024-01-30T14:28:31;26.40;;;16.80;;